createdAt,value
2023-02-25T00:00:47.210Z,2.20
2023-02-25T00:03:37.151Z,2.20
2023-02-25T00:06:28.935Z,2.20
2023-02-25T00:09:18.783Z,2.20
2023-02-25T00:12:09.056Z,2.20
2023-02-25T00:14:58.841Z,2.20
2023-02-25T00:17:50.277Z,2.20
2023-02-25T00:20:42.611Z,2.20
2023-02-25T00:23:33.794Z,2.10
2023-02-25T00:26:25.350Z,2.20
2023-02-25T00:29:15.395Z,2.20
2023-02-25T00:32:05.274Z,2.20
2023-02-25T00:34:55.445Z,2.20
2023-02-25T00:37:45.095Z,2.20
2023-02-25T00:40:40.057Z,2.30
2023-02-25T00:43:31.485Z,2.30
2023-02-25T00:46:22.716Z,2.30
2023-02-25T00:49:21.257Z,2.30
2023-02-25T00:52:20.777Z,2.30
2023-02-25T00:55:11.597Z,2.30
2023-02-25T00:58:03.331Z,2.30
2023-02-25T01:00:53.543Z,2.30
2023-02-25T01:03:43.277Z,2.30
2023-02-25T01:06:35.456Z,2.30
2023-02-25T01:09:25.386Z,2.20
2023-02-25T01:12:15.523Z,2.20
2023-02-25T01:15:07.523Z,2.20
2023-02-25T01:17:57.299Z,2.30
2023-02-25T01:20:46.674Z,2.20
2023-02-25T01:23:36.835Z,2.30
2023-02-25T01:26:27.181Z,2.20
2023-02-25T01:29:18.823Z,2.30
2023-02-25T01:32:14.243Z,2.30
2023-02-25T01:35:04.412Z,2.40
2023-02-25T01:37:55.793Z,2.30
2023-02-25T01:40:45.326Z,2.40
2023-02-25T01:43:35.284Z,2.40
2023-02-25T01:46:25.225Z,2.40
2023-02-25T01:49:21.197Z,2.30
2023-02-25T01:52:15.400Z,2.30
2023-02-25T01:55:06.818Z,2.30
2023-02-25T01:57:56.638Z,2.40
2023-02-25T02:00:46.790Z,2.30
2023-02-25T02:03:37.977Z,2.30
2023-02-25T02:06:33.026Z,2.30
2023-02-25T02:09:26.018Z,2.30
2023-02-25T02:12:35.997Z,2.40
2023-02-25T02:15:13.875Z,2.40
2023-02-25T02:18:07.219Z,2.30
2023-02-25T02:24:09.896Z,2.40
2023-02-25T02:27:03.991Z,2.40
2023-02-25T02:30:36.800Z,2.30
2023-02-25T02:33:38.578Z,2.40
2023-02-25T02:36:37.677Z,2.30
2023-02-25T02:39:35.640Z,2.40
2023-02-25T02:42:33.445Z,2.30
2023-02-25T02:45:27.674Z,2.40
2023-02-25T02:48:22.358Z,2.40
2023-02-25T02:51:18.175Z,2.40
2023-02-25T02:54:11.215Z,2.40
2023-02-25T02:57:02.911Z,2.40
2023-02-25T02:59:55.630Z,2.40
2023-02-25T03:02:48.781Z,2.40
2023-02-25T03:05:40.850Z,2.40
2023-02-25T03:08:35.369Z,2.40
2023-02-25T03:11:26.148Z,2.40
2023-02-25T03:14:16.816Z,2.40
2023-02-25T03:17:09.575Z,2.50
2023-02-25T03:20:06.912Z,2.50
2023-02-25T03:23:00.717Z,2.50
2023-02-25T03:25:56.713Z,2.50
2023-02-25T03:28:47.900Z,2.50
2023-02-25T03:31:42.965Z,2.50
2023-02-25T03:34:37.772Z,2.50
2023-02-25T03:37:31.265Z,2.40
2023-02-25T03:40:23.123Z,2.50
2023-02-25T03:43:18.548Z,2.60
2023-02-25T03:46:09.667Z,2.50
2023-02-25T03:49:01.375Z,2.60
2023-02-25T03:51:53.325Z,2.50
2023-02-25T03:54:42.921Z,2.60
2023-02-25T03:57:38.968Z,2.60
2023-02-25T04:00:33.904Z,2.50
2023-02-25T04:03:23.903Z,2.60
2023-02-25T04:06:15.172Z,2.60
2023-02-25T04:09:06.432Z,2.60
2023-02-25T04:11:57.418Z,2.60
2023-02-25T04:14:47.112Z,2.70
2023-02-25T04:17:38.616Z,2.70
2023-02-25T04:20:30.203Z,2.60
2023-02-25T04:23:19.931Z,2.60
2023-02-25T04:26:09.340Z,2.70
2023-02-25T04:28:58.947Z,2.70
2023-02-25T04:31:48.772Z,2.60
2023-02-25T04:34:40.187Z,2.60
2023-02-25T04:37:29.830Z,2.60
2023-02-25T04:40:21.428Z,2.60
2023-02-25T04:43:11.814Z,2.60
2023-02-25T04:46:01.217Z,2.60
2023-02-25T04:48:51.013Z,2.50
2023-02-25T04:51:42.036Z,2.60
2023-02-25T04:54:31.876Z,2.60
2023-02-25T04:57:21.557Z,2.60
2023-02-25T05:00:19.435Z,2.70
2023-02-25T05:03:09.673Z,2.60
2023-02-25T05:05:59.118Z,2.60
2023-02-25T05:08:50.563Z,2.60
2023-02-25T05:11:40.206Z,2.60
2023-02-25T05:14:32.523Z,2.60
2023-02-25T05:17:22.342Z,2.60
2023-02-25T05:20:13.890Z,2.60
2023-02-25T05:23:03.380Z,2.60
2023-02-25T05:25:54.499Z,2.60
2023-02-25T05:28:44.180Z,2.50
2023-02-25T05:31:34.065Z,2.60
2023-02-25T05:34:24.236Z,2.50
2023-02-25T05:37:14.075Z,2.50
2023-02-25T05:40:04.018Z,2.60
2023-02-25T05:42:55.365Z,2.60
2023-02-25T05:45:44.756Z,2.70
2023-02-25T05:48:35.376Z,2.70
2023-02-25T05:51:25.062Z,2.80
2023-02-25T05:54:14.845Z,2.80
2023-02-25T05:57:04.274Z,2.80
2023-02-25T05:59:55.552Z,2.80
2023-02-25T06:02:45.876Z,2.80
2023-02-25T06:05:35.352Z,2.80
2023-02-25T06:08:25.151Z,2.80
2023-02-25T06:11:19.371Z,2.80
2023-02-25T06:14:09.231Z,2.80
2023-02-25T06:17:00.492Z,2.80
2023-02-25T06:19:50.070Z,2.80
2023-02-25T06:22:39.878Z,2.80
2023-02-25T06:25:32.510Z,2.80
2023-02-25T06:28:22.320Z,2.90
2023-02-25T06:31:12.904Z,2.90
2023-02-25T06:34:04.050Z,2.90
2023-02-25T06:36:53.892Z,3.00
2023-02-25T06:39:44.253Z,3.00
2023-02-25T06:42:34.240Z,3.00
2023-02-25T06:45:23.914Z,3.00
2023-02-25T06:48:13.349Z,3.10
2023-02-25T06:51:09.820Z,3.10
2023-02-25T06:53:59.261Z,3.20
2023-02-25T06:56:49.171Z,3.30
2023-02-25T06:59:38.780Z,3.40
2023-02-25T07:02:28.936Z,3.60
2023-02-25T07:05:19.137Z,3.60
2023-02-25T07:08:10.273Z,3.60
2023-02-25T07:11:14.938Z,3.60
2023-02-25T07:14:05.341Z,3.60
2023-02-25T07:16:55.769Z,3.80
2023-02-25T07:20:26.652Z,3.70
2023-02-25T07:23:17.569Z,3.80
2023-02-25T07:26:08.446Z,3.80
2023-02-25T07:28:58.507Z,3.60
2023-02-25T07:31:48.032Z,3.70
2023-02-25T07:34:38.747Z,3.60
2023-02-25T07:37:28.010Z,3.70
2023-02-25T07:40:21.679Z,3.80
2023-02-25T07:43:11.409Z,4.00
2023-02-25T07:46:01.871Z,4.00
2023-02-25T07:48:51.413Z,4.00
2023-02-25T07:51:41.003Z,4.30
2023-02-25T07:54:30.824Z,4.30
2023-02-25T07:57:22.154Z,4.30
2023-02-25T08:00:13.340Z,4.20
2023-02-25T08:03:03.182Z,4.30
2023-02-25T08:05:54.535Z,4.50
2023-02-25T08:08:44.383Z,4.30
2023-02-25T08:11:34.199Z,4.40
2023-02-25T08:14:25.142Z,4.30
2023-02-25T08:17:15.060Z,4.60
2023-02-25T08:20:06.884Z,4.70
2023-02-25T08:22:58.297Z,4.80
2023-02-25T08:25:48.132Z,4.90
2023-02-25T08:28:40.397Z,4.90
2023-02-25T08:31:31.934Z,4.80
2023-02-25T08:34:21.696Z,4.70
2023-02-25T08:37:12.740Z,5.00
2023-02-25T08:40:02.117Z,5.00
2023-02-25T08:42:51.977Z,5.30
2023-02-25T08:45:43.392Z,5.30
2023-02-25T08:48:34.792Z,5.40
2023-02-25T08:51:27.123Z,5.40
2023-02-25T08:54:16.672Z,5.40
2023-02-25T08:57:06.307Z,5.30
2023-02-25T08:59:56.471Z,5.40
2023-02-25T09:02:46.351Z,5.30
2023-02-25T09:05:38.669Z,5.50
2023-02-25T09:08:28.714Z,5.70
2023-02-25T09:11:18.786Z,5.50
2023-02-25T09:14:08.253Z,5.50
2023-02-25T09:16:57.959Z,5.60
2023-02-25T09:19:47.486Z,5.70
2023-02-25T09:22:39.190Z,5.60
2023-02-25T09:25:29.680Z,5.80
2023-02-25T09:28:19.595Z,6.00
2023-02-25T09:31:09.240Z,6.00
2023-02-25T09:33:59.057Z,6.30
2023-02-25T09:36:48.600Z,6.40
2023-02-25T09:39:39.625Z,6.40
2023-02-25T09:42:45.356Z,6.70
2023-02-25T09:45:36.814Z,6.70
2023-02-25T09:48:29.298Z,6.60
2023-02-25T09:51:22.891Z,6.70
2023-02-25T09:54:23.934Z,6.90
2023-02-25T09:57:19.591Z,7.00
2023-02-25T10:00:19.285Z,6.90
2023-02-25T10:03:17.020Z,6.80
2023-02-25T10:06:13.685Z,7.00
2023-02-25T10:09:13.218Z,7.10
2023-02-25T10:12:14.564Z,7.10
2023-02-25T10:15:31.015Z,7.10
2023-02-25T10:18:35.503Z,7.10
2023-02-25T10:21:37.815Z,7.20
2023-02-25T10:24:36.342Z,7.20
2023-02-25T10:27:31.978Z,7.20
2023-02-25T10:30:28.519Z,7.70
2023-02-25T10:33:22.146Z,7.80
2023-02-25T10:36:18.329Z,8.10
2023-02-25T10:39:07.852Z,8.30
2023-02-25T10:41:57.807Z,7.90
2023-02-25T10:44:48.275Z,7.80
2023-02-25T10:47:41.872Z,8.00
2023-02-25T10:50:44.970Z,7.90
2023-02-25T10:53:35.556Z,7.80
2023-02-25T10:56:26.844Z,7.40
2023-02-25T10:59:31.797Z,7.50
2023-02-25T11:02:28.367Z,7.70
2023-02-25T11:05:39.196Z,7.40
2023-02-25T11:08:31.545Z,7.30
2023-02-25T11:11:23.793Z,6.80
2023-02-25T11:14:17.255Z,6.80
2023-02-25T11:17:09.432Z,6.80
2023-02-25T11:20:04.595Z,6.70
2023-02-25T11:22:58.089Z,6.60
2023-02-25T11:25:47.885Z,6.60
2023-02-25T11:28:42.562Z,6.40
2023-02-25T11:31:37.763Z,6.10
2023-02-25T11:34:30.976Z,6.10
2023-02-25T11:40:28.304Z,6.40
2023-02-25T11:43:20.889Z,6.60
2023-02-25T11:46:14.982Z,6.60
2023-02-25T11:49:15.352Z,6.90
2023-02-25T11:52:13.482Z,7.00
2023-02-25T11:55:20.622Z,6.90
2023-02-25T11:58:23.683Z,6.80
2023-02-25T12:01:22.854Z,6.80
2023-02-25T12:04:41.879Z,6.80
2023-02-25T12:08:12.430Z,6.80
2023-02-25T12:11:37.773Z,6.70
2023-02-25T12:15:06.830Z,6.60
2023-02-25T12:18:38.405Z,6.50
2023-02-25T12:22:02.795Z,6.90
2023-02-25T12:25:23.233Z,7.00
2023-02-25T12:28:41.682Z,7.50
2023-02-25T12:32:15.888Z,7.50
2023-02-25T12:35:29.183Z,7.30
2023-02-25T12:38:55.841Z,7.40
2023-02-25T12:41:50.622Z,7.10
2023-02-25T12:45:03.876Z,7.10
2023-02-25T12:48:17.394Z,7.50
2023-02-25T12:51:36.136Z,7.60
2023-02-25T12:54:48.760Z,8.00
2023-02-25T12:57:50.234Z,8.20
2023-02-25T13:01:08.159Z,8.00
2023-02-25T13:04:30.196Z,8.00
2023-02-25T13:08:17.641Z,8.00
2023-02-25T13:11:22.230Z,7.80
2023-02-25T13:14:40.828Z,7.50
2023-02-25T13:17:39.755Z,7.30
2023-02-25T13:20:55.684Z,6.90
2023-02-25T13:24:12.854Z,7.00
2023-02-25T13:27:29.295Z,6.90
2023-02-25T13:30:45.602Z,6.70
2023-02-25T13:33:57.116Z,6.60
2023-02-25T13:37:11.227Z,6.50
2023-02-25T13:40:27.254Z,6.50
2023-02-25T13:43:35.483Z,6.40
2023-02-25T13:47:16.053Z,6.40
2023-02-25T13:50:27.768Z,6.30
2023-02-25T13:53:33.023Z,6.20
2023-02-25T13:56:40.113Z,6.10
2023-02-25T14:00:00.182Z,6.00
2023-02-25T14:03:06.023Z,6.00
2023-02-25T14:06:10.636Z,6.00
2023-02-25T14:09:14.623Z,6.00
2023-02-25T14:12:13.656Z,6.10
2023-02-25T14:15:31.554Z,6.20
2023-02-25T14:18:52.140Z,6.00
2023-02-25T14:22:10.503Z,5.90
2023-02-25T14:25:11.356Z,6.10
2023-02-25T14:28:11.378Z,5.80
2023-02-25T14:31:16.233Z,5.90
2023-02-25T14:34:26.058Z,6.00
2023-02-25T14:37:38.693Z,5.90
2023-02-25T14:40:33.172Z,5.90
2023-02-25T14:43:34.393Z,5.70
2023-02-25T14:46:35.932Z,5.90
2023-02-25T14:49:31.872Z,5.80
2023-02-25T14:52:36.674Z,5.70
2023-02-25T14:55:38.975Z,5.70
2023-02-25T14:59:07.275Z,5.50
2023-02-25T15:02:36.112Z,5.40
2023-02-25T15:05:51.878Z,5.40
2023-02-25T15:09:23.990Z,5.30
2023-02-25T15:12:28.270Z,5.30
2023-02-25T15:15:40.068Z,5.40
2023-02-25T15:22:26.942Z,5.20
2023-02-25T15:25:41.632Z,5.20
2023-02-25T15:28:45.223Z,5.10
2023-02-25T15:31:39.556Z,5.00
2023-02-25T15:34:39.400Z,5.00
2023-02-25T15:37:36.160Z,4.90
2023-02-25T15:40:52.222Z,4.80
2023-02-25T15:43:47.153Z,4.70
2023-02-25T15:46:46.893Z,4.70
2023-02-25T15:49:40.253Z,4.70
2023-02-25T15:52:56.350Z,4.70
2023-02-25T15:55:47.998Z,4.70
2023-02-25T15:58:55.190Z,4.70
2023-02-25T16:01:47.619Z,4.70
2023-02-25T16:04:53.414Z,4.60
2023-02-25T16:07:58.261Z,4.60
2023-02-25T16:10:56.952Z,4.60
2023-02-25T16:13:48.364Z,4.60
2023-02-25T16:16:43.160Z,4.50
2023-02-25T16:19:40.153Z,4.50
2023-02-25T16:22:32.032Z,4.50
2023-02-25T16:25:35.421Z,4.50
2023-02-25T16:28:39.203Z,4.30
2023-02-25T16:31:43.511Z,4.20
2023-02-25T16:34:40.759Z,4.20
2023-02-25T16:37:44.054Z,4.20
2023-02-25T16:40:39.211Z,4.10
2023-02-25T16:43:35.353Z,4.00
2023-02-25T16:46:31.614Z,3.90
2023-02-25T16:49:29.034Z,4.00
2023-02-25T16:52:27.632Z,4.00
2023-02-25T16:55:25.556Z,3.90
2023-02-25T16:58:27.286Z,3.80
2023-02-25T17:01:28.921Z,3.80
2023-02-25T17:04:27.452Z,3.80
2023-02-25T17:07:20.473Z,3.70
2023-02-25T17:10:26.912Z,3.50
2023-02-25T17:13:24.016Z,3.30
2023-02-25T17:16:24.180Z,3.10
2023-02-25T17:19:21.237Z,3.00
2023-02-25T17:22:14.033Z,2.90
2023-02-25T17:25:10.874Z,2.90
2023-02-25T19:08:49.473Z,3.00
2023-02-25T19:11:43.273Z,3.90
2023-02-25T19:14:36.395Z,3.70
2023-02-25T19:17:27.858Z,3.70
2023-02-25T19:20:22.149Z,3.60
2023-02-25T19:23:14.884Z,3.40
2023-02-25T19:26:08.893Z,3.40
2023-02-25T19:29:01.908Z,3.50
2023-02-25T19:31:53.274Z,3.60
2023-02-25T19:34:45.657Z,3.60
2023-02-25T19:37:41.999Z,3.60
2023-02-25T19:40:34.290Z,3.70
2023-02-25T19:43:28.069Z,3.60
2023-02-25T19:46:22.847Z,3.50
2023-02-25T19:49:15.719Z,3.50
2023-02-25T19:52:08.931Z,3.50
2023-02-25T19:55:02.273Z,3.60
2023-02-25T19:57:54.302Z,3.60
2023-02-25T20:00:50.534Z,3.60
2023-02-25T20:03:42.029Z,3.50
2023-02-25T20:06:42.745Z,3.60
2023-02-25T20:09:35.034Z,3.60
2023-02-25T20:12:27.407Z,3.60
2023-02-25T20:15:21.076Z,3.50
2023-02-25T20:18:14.728Z,3.40
2023-02-25T20:21:08.056Z,3.40
2023-02-25T20:24:02.453Z,3.30
2023-02-25T20:26:57.075Z,3.30
2023-02-25T20:29:52.407Z,3.30
2023-02-25T20:32:44.338Z,3.30
2023-02-25T20:35:37.966Z,3.40
2023-02-25T20:38:36.134Z,3.50
2023-02-25T20:41:28.331Z,3.50
2023-02-25T20:44:20.191Z,3.50
2023-02-25T20:47:18.214Z,3.60
2023-02-25T20:50:14.458Z,3.60
2023-02-25T20:53:07.887Z,3.70
2023-02-25T20:56:00.590Z,3.70
2023-02-25T20:58:53.029Z,3.80
2023-02-25T21:01:44.364Z,3.70
2023-02-25T21:04:36.465Z,3.70
2023-02-25T21:07:26.717Z,3.50
2023-02-25T21:10:19.987Z,3.40
2023-02-25T21:13:12.529Z,3.30
2023-02-25T21:16:05.129Z,3.10
2023-02-25T21:18:55.303Z,3.00
2023-02-25T21:21:48.599Z,2.90
2023-02-25T21:24:43.701Z,2.80
2023-02-25T21:27:39.734Z,2.70
2023-02-25T21:30:33.573Z,2.70
2023-02-25T21:33:26.046Z,2.50
2023-02-25T21:36:16.333Z,2.50
2023-02-25T21:39:07.817Z,2.40
2023-02-25T21:41:58.023Z,2.40
2023-02-25T21:44:53.104Z,2.40
2023-02-25T21:47:44.224Z,2.30
2023-02-25T21:50:35.356Z,2.20
2023-02-25T21:53:28.323Z,2.20
2023-02-25T21:56:19.626Z,2.00
2023-02-25T21:59:11.938Z,1.90
2023-02-25T22:02:06.076Z,1.80
2023-02-25T22:04:56.388Z,1.80
2023-02-25T22:07:46.663Z,1.80
2023-02-25T22:10:37.396Z,1.80
2023-02-25T22:13:28.287Z,1.70
2023-02-25T22:16:18.681Z,1.70
2023-02-25T22:19:10.934Z,1.50
2023-02-25T22:22:01.290Z,1.40
2023-02-25T22:24:50.996Z,1.30
2023-02-25T22:27:40.889Z,1.30
2023-02-25T22:30:30.398Z,1.30
2023-02-25T22:33:19.880Z,1.20
2023-02-25T22:36:14.172Z,1.10
2023-02-25T22:39:07.817Z,1.00
2023-02-25T22:41:57.433Z,1.00
2023-02-25T22:44:47.293Z,0.80
2023-02-25T22:47:37.137Z,0.80
2023-02-25T22:50:29.553Z,0.80
2023-02-25T22:53:20.875Z,0.80
2023-02-25T22:56:12.594Z,0.80
2023-02-25T22:59:02.424Z,0.80
2023-02-25T23:01:52.108Z,0.80
2023-02-25T23:04:41.954Z,0.80
2023-02-25T23:07:31.475Z,0.80
2023-02-25T23:10:22.455Z,0.80
2023-02-25T23:13:12.441Z,0.80
2023-02-25T23:16:05.236Z,0.60
2023-02-25T23:18:54.821Z,0.50
2023-02-25T23:21:44.843Z,0.50
2023-02-25T23:24:34.552Z,0.40
2023-02-25T23:27:25.945Z,0.30
2023-02-25T23:30:16.192Z,0.20
2023-02-25T23:33:06.605Z,0.20
2023-02-25T23:35:56.471Z,0.10
2023-02-25T23:38:45.959Z,0.10
2023-02-25T23:41:39.332Z,0.10
2023-02-25T23:44:30.569Z,0.10
2023-02-25T23:47:20.250Z,0.10
2023-02-25T23:50:11.094Z,-0.10
2023-02-25T23:53:00.617Z,-0.10
2023-02-25T23:55:50.639Z,-0.10
2023-02-25T23:58:41.069Z,-0.20
